Terminal Aerodrome Forecast
Issued by NWS Cleveland, OH

Home | Current Version | Previous Version | Text Only | Print | Product List | Glossary On
Versions: 1 2 3 4 5 6 7 8 9 10 11 12 13 14 15 16 17 18 19 20 21
000
FTUS41 KCLE 222300 RRA
TAFERI
TAF
KERI 222341Z 2300/2324 35008KT P6SM SCT015 SCT120
     FM230100 07004KT P6SM SCT040
     FM230800 11004KT 3SM BR SCT008 OVC010
      TEMPO 2308/2312 1 1/2SM BR OVC005
     FM231500 03008KT P6SM SCT035=

USA.gov is the U.S. government's official web portal to all federal, state and local government web resources and services.